Time;durP1;ratioP1;P1;durP2;ratioP2;P2;SDS_P1;SDS_P2;PMS_P1;PMS_P2;Temp;Humidity;BMP_temperature;BMP_pressure;BME280_temperature;BME280_humidity;BME280_pressure;Samples;Min_cycle;Max_cycle;Signal;HPM_P1;HPM_P2
2023/04/04 00:00:20;;;;;;;7.82;1.48;;;;;;;3.26;60.63;101529.72;5031812;28;20108;-61
2023/04/04 00:02:48;;;;;;;2.13;1.35;;;;;;;3.23;60.40;101525.31;5033822;28;20124;-53
2023/04/04 00:05:15;;;;;;;6.13;1.10;;;;;;;3.20;60.10;101526.06;5038899;28;20045;-56
2023/04/04 00:07:41;;;;;;;6.10;1.60;;;;;;;3.16;60.47;101523.25;5038730;28;20548;-56
2023/04/04 00:10:08;;;;;;;7.88;1.42;;;;;;;3.13;60.28;101523.06;5042665;28;20095;-58
2023/04/04 00:12:35;;;;;;;7.45;1.63;;;;;;;3.08;60.30;101516.03;5041620;28;20060;-56
2023/04/04 00:15:02;;;;;;;3.72;1.45;;;;;;;3.05;59.92;101520.13;5028882;28;20659;-55
2023/04/04 00:17:29;;;;;;;3.58;1.67;;;;;;;3.02;59.72;101520.88;5029868;28;20045;-54
2023/04/04 00:19:56;;;;;;;4.63;1.88;;;;;;;2.99;60.59;101519.81;5025525;28;20069;-59
2023/04/04 00:22:24;;;;;;;5.20;2.50;;;;;;;2.96;60.39;101523.09;5025428;28;20523;-54
2023/04/04 00:24:50;;;;;;;5.63;2.10;;;;;;;2.93;60.87;101517.81;5022609;28;20072;-55
2023/04/04 00:27:17;;;;;;;5.85;1.80;;;;;;;2.91;59.98;101516.88;5027708;28;20105;-57
2023/04/04 00:29:44;;;;;;;8.82;3.70;;;;;;;2.88;60.96;101514.13;5023762;28;20052;-56
2023/04/04 00:32:11;;;;;;;7.95;2.97;;;;;;;2.85;61.23;101521.66;5024031;28;20488;-56
2023/04/04 00:34:37;;;;;;;3.42;1.60;;;;;;;2.82;60.67;101525.81;5023185;28;20050;-49
2023/04/04 00:37:06;;;;;;;4.53;1.50;;;;;;;2.79;60.42;101515.41;5020020;28;20092;-54
2023/04/04 00:39:33;;;;;;;3.95;1.60;;;;;;;2.77;60.72;101514.44;5019828;28;20053;-54
2023/04/04 00:42:00;;;;;;;7.63;1.42;;;;;;;2.75;61.47;101510.94;5013803;28;20661;-54
2023/04/04 00:44:27;;;;;;;3.50;2.03;;;;;;;2.73;60.46;101507.41;5009395;28;20077;-58
2023/04/04 00:46:53;;;;;;;4.63;1.20;;;;;;;2.70;61.18;101509.78;5007322;28;20303;-60
2023/04/04 00:49:20;;;;;;;5.80;1.95;;;;;;;2.69;61.64;101510.59;5009690;28;20539;-58
2023/04/04 00:51:47;;;;;;;3.83;1.23;;;;;;;2.66;60.67;101505.31;5023667;28;20544;-54
2023/04/04 00:54:13;;;;;;;2.95;1.42;;;;;;;2.64;60.65;101506.94;5019440;28;20470;-48
2023/04/04 00:56:40;;;;;;;3.65;1.88;;;;;;;2.62;61.02;101498.28;5024026;28;20053;-61
2023/04/04 00:59:07;;;;;;;4.40;1.33;;;;;;;2.61;61.79;101501.63;5015787;28;20181;-50
2023/04/04 01:01:35;;;;;;;4.20;1.67;;;;;;;2.59;60.54;101504.13;5026361;28;20055;-54
2023/04/04 01:04:03;;;;;;;3.42;1.17;;;;;;;2.56;60.58;101501.38;5008920;28;20045;-49
2023/04/04 01:06:31;;;;;;;7.72;1.67;;;;;;;2.54;61.07;101495.31;5044109;28;20068;-52
2023/04/04 01:08:58;;;;;;;3.95;1.60;;;;;;;2.52;60.57;101496.91;5045930;28;20049;-51
2023/04/04 01:11:26;;;;;;;5.50;1.65;;;;;;;2.50;60.98;101501.94;5044609;28;20049;-55
2023/04/04 01:13:53;;;;;;;3.83;1.42;;;;;;;2.47;61.14;101504.34;5028672;28;20080;-55
2023/04/04 01:16:20;;;;;;;4.45;1.60;;;;;;;2.45;61.99;101500.81;5045788;28;20099;-58
2023/04/04 01:18:48;;;;;;;6.43;2.05;;;;;;;2.43;61.13;101503.28;5041581;28;20070;-58
2023/04/04 01:21:17;;;;;;;4.53;1.92;;;;;;;2.42;61.61;101495.53;5043161;28;20132;-56
2023/04/04 01:23:59;;;;;;;2.33;1.50;;;;;;;2.37;61.05;101492.75;5037924;28;20486;-53
2023/04/04 01:26:26;;;;;;;4.20;1.20;;;;;;;2.36;61.92;101495.22;5024606;28;20107;-51
2023/04/04 01:28:53;;;;;;;5.82;2.10;;;;;;;2.33;62.04;101495.03;5026423;28;20389;-50
2023/04/04 01:31:26;;;;;;;4.20;2.22;;;;;;;2.29;61.43;101499.97;5042383;28;20518;-53
2023/04/04 01:34:01;;;;;;;6.72;2.38;;;;;;;2.25;61.03;101487.84;5027141;28;20048;-54
2023/04/04 01:36:37;;;;;;;4.30;2.13;;;;;;;2.23;62.12;101484.28;5039672;28;20095;-53
2023/04/04 01:39:14;;;;;;;4.45;1.77;;;;;;;2.22;61.26;101485.09;5038647;28;20102;-54
2023/04/04 01:41:42;;;;;;;5.00;1.73;;;;;;;2.19;60.96;101482.38;5041050;28;20126;-58
2023/04/04 01:44:09;;;;;;;5.00;2.25;;;;;;;2.17;61.59;101489.09;5025037;28;20095;-51
2023/04/04 01:46:36;;;;;;;5.05;1.58;;;;;;;2.14;61.39;101482.13;5038441;28;20704;-56
2023/04/04 01:49:02;;;;;;;5.80;1.35;;;;;;;2.12;62.18;101475.16;5044524;28;20115;-50
2023/04/04 01:51:29;;;;;;;2.58;1.20;;;;;;;2.09;61.85;101475.00;5055952;28;20135;-58
2023/04/04 01:53:56;;;;;;;6.50;1.95;;;;;;;2.05;62.15;101472.28;5044999;28;20076;-55
2023/04/04 01:56:23;;;;;;;4.50;1.95;;;;;;;2.02;62.19;101474.66;5040720;28;20402;-57
2023/04/04 01:58:51;;;;;;;9.18;1.58;;;;;;;1.97;61.38;101468.44;5048821;28;20098;-50
2023/04/04 02:01:17;;;;;;;2.95;1.48;;;;;;;1.94;62.26;101470.81;5045562;28;20055;-54
2023/04/04 02:03:44;;;;;;;5.07;2.08;;;;;;;1.91;62.84;101470.63;5036991;28;20038;-56
2023/04/04 02:06:14;;;;;;;7.10;1.45;;;;;;;1.89;62.20;101467.13;5027623;28;20048;-58
2023/04/04 02:08:40;;;;;;;2.97;1.50;;;;;;;1.87;61.81;101468.69;5038909;28;20077;-60
2023/04/04 02:11:07;;;;;;;3.53;2.03;;;;;;;1.82;62.98;101465.88;5044684;28;20076;-57
2023/04/04 02:13:34;;;;;;;5.10;1.98;;;;;;;1.80;63.02;101467.47;5032393;28;20465;-56
2023/04/04 02:16:00;;;;;;;3.65;1.38;;;;;;;1.77;62.14;101468.19;5040768;28;20044;-55
2023/04/04 02:18:27;;;;;;;2.65;1.10;;;;;;;1.76;62.62;101463.84;5045419;28;20045;-59
2023/04/04 02:20:56;;;;;;;4.38;1.92;;;;;;;1.74;62.69;101465.47;5046897;28;20052;-51
2023/04/04 02:23:22;;;;;;;5.70;1.95;;;;;;;1.74;62.93;101462.00;5035463;28;20077;-53
2023/04/04 02:25:50;;;;;;;2.90;1.33;;;;;;;1.72;62.21;101464.47;5040870;28;20080;-59
2023/04/04 02:28:16;;;;;;;4.15;1.65;;;;;;;1.70;62.15;101455.88;5031703;28;20076;-53
2023/04/04 02:30:43;;;;;;;3.22;1.52;;;;;;;1.69;62.75;101454.09;5021636;28;20504;-55
2023/04/04 02:33:10;;;;;;;3.80;1.63;;;;;;;1.66;61.81;101453.94;5039571;28;20080;-58
2023/04/04 02:35:37;;;;;;;5.78;1.50;;;;;;;1.65;62.55;101457.25;5033188;28;20132;-55
2023/04/04 02:38:04;;;;;;;5.20;1.52;;;;;;;1.63;61.85;101459.75;5039103;28;20048;-60
2023/04/04 02:40:30;;;;;;;3.97;1.70;;;;;;;1.61;63.10;101460.44;5040821;28;20073;-55
2023/04/04 02:42:57;;;;;;;6.05;1.52;;;;;;;1.59;62.67;101462.03;5038017;28;20160;-50
2023/04/04 02:45:23;;;;;;;5.97;1.60;;;;;;;1.53;61.94;101458.31;5030397;28;20101;-55
2023/04/04 02:47:51;;;;;;;4.65;1.45;;;;;;;1.50;62.88;101455.63;5033329;28;20552;-51
2023/04/04 02:50:17;;;;;;;7.60;1.92;;;;;;;1.47;62.65;101449.44;5038279;28;20152;-54
2023/04/04 02:52:44;;;;;;;4.53;1.48;;;;;;;1.45;62.55;101454.44;5036063;28;20107;-60
2023/04/04 02:55:11;;;;;;;8.15;1.88;;;;;;;1.42;62.74;101446.66;5038952;28;20431;-54
2023/04/04 02:57:37;;;;;;;5.10;1.33;;;;;;;1.41;62.60;101442.31;5041543;28;20735;-55
2023/04/04 03:00:05;;;;;;;7.15;2.15;;;;;;;1.40;63.18;101450.78;5040673;28;20053;-52
2023/04/04 03:02:32;;;;;;;1.98;1.63;;;;;;;1.39;62.75;101443.91;5044009;28;20111;-57
2023/04/04 03:04:59;;;;;;;4.07;1.73;;;;;;;1.37;63.85;101440.38;5038371;28;20615;-54
2023/04/04 03:07:25;;;;;;;9.35;2.17;;;;;;;1.36;64.07;101441.19;5046208;28;20080;-56
2023/04/04 03:09:52;;;;;;;2.25;1.23;;;;;;;1.35;63.02;101436.88;5035018;28;20106;-54
2023/04/04 03:12:20;;;;;;;7.80;1.98;;;;;;;1.33;63.69;101436.78;5035698;28;20073;-53
2023/04/04 03:14:47;;;;;;;3.70;1.75;;;;;;;1.33;63.06;101438.44;5033618;28;20077;-51
2023/04/04 03:17:14;;;;;;;2.05;1.50;;;;;;;1.31;62.63;101424.72;5045610;28;20080;-59
2023/04/04 03:19:40;;;;;;;4.97;1.73;;;;;;;1.27;62.53;101422.00;5021307;28;20053;-54
2023/04/04 03:22:07;;;;;;;3.55;1.67;;;;;;;1.25;63.10;101417.59;5037994;28;20064;-53
2023/04/04 03:24:35;;;;;;;7.22;1.83;;;;;;;1.22;63.55;101420.81;5043688;28;20144;-56
2023/04/04 03:27:03;;;;;;;6.25;1.80;;;;;;;1.20;63.34;101424.09;5024500;28;21789;-57
2023/04/04 03:29:30;;;;;;;4.72;1.88;;;;;;;1.17;62.72;101412.03;5036913;28;20730;-50
2023/04/04 03:31:56;;;;;;;4.18;1.85;;;;;;;1.13;63.40;101411.00;5042488;28;20532;-53
2023/04/04 03:34:23;;;;;;;4.22;2.35;;;;;;;1.10;62.94;101409.91;5042268;28;20053;-52
2023/04/04 03:36:52;;;;;;;3.80;2.13;;;;;;;1.09;63.11;101413.25;5037850;28;20048;-55
2023/04/04 03:39:19;;;;;;;3.28;1.98;;;;;;;1.06;64.12;101413.97;5038373;28;20061;-59
2023/04/04 03:41:46;;;;;;;8.48;2.00;;;;;;;1.02;63.51;101418.00;5041117;28;20045;-56
2023/04/04 03:44:12;;;;;;;4.15;1.83;;;;;;;1.01;63.98;101406.03;5040464;28;20127;-59
2023/04/04 03:46:39;;;;;;;3.55;1.80;;;;;;;0.98;63.83;101410.94;5042690;28;20085;-49
2023/04/04 03:49:06;;;;;;;3.47;2.00;;;;;;;0.94;64.18;101398.81;5036403;28;20492;-58
2023/04/04 03:51:32;;;;;;;6.15;2.30;;;;;;;0.93;63.72;101402.16;5038192;28;20073;-56
2023/04/04 03:53:59;;;;;;;3.72;1.40;;;;;;;0.91;63.61;101407.97;5043358;28;20083;-57
2023/04/04 03:56:26;;;;;;;6.60;2.33;;;;;;;0.86;64.29;101410.25;5042839;28;20468;-60
2023/04/04 03:58:55;;;;;;;5.47;2.10;;;;;;;0.84;64.25;101411.84;5042835;28;20045;-57
2023/04/04 04:01:22;;;;;;;5.22;2.55;;;;;;;0.82;63.58;101410.84;5047136;28;20060;-57
2023/04/04 04:03:48;;;;;;;4.95;2.63;;;;;;;0.78;63.47;101417.47;5046067;28;20110;-56
2023/04/04 04:06:15;;;;;;;4.55;2.67;;;;;;;0.73;63.80;101411.19;5043834;28;20107;-57
2023/04/04 04:08:42;;;;;;;6.95;2.28;;;;;;;0.69;64.17;101415.22;5046951;28;20108;-54
2023/04/04 04:11:09;;;;;;;8.10;2.40;;;;;;;0.67;64.49;101413.38;5045584;28;20121;-56
2023/04/04 04:13:37;;;;;;;5.03;2.03;;;;;;;0.64;64.80;101419.16;5045486;28;20129;-50
2023/04/04 04:16:04;;;;;;;4.57;2.22;;;;;;;0.63;63.72;101415.75;5046553;28;20393;-56
2023/04/04 04:18:31;;;;;;;3.88;1.70;;;;;;;0.60;63.79;101417.22;5045777;28;20416;-50
2023/04/04 04:21:00;;;;;;;5.25;3.03;;;;;;;0.56;63.78;101410.16;5041904;28;20095;-52
2023/04/04 04:23:28;;;;;;;5.35;2.58;;;;;;;0.53;64.00;101410.00;5030954;28;20072;-55
2023/04/04 04:25:55;;;;;;;9.38;3.08;;;;;;;0.50;63.77;101406.47;5047698;28;20559;-54
2023/04/04 04:28:23;;;;;;;8.02;2.78;;;;;;;0.49;63.96;101407.28;5041285;28;20175;-57
2023/04/04 04:31:06;;;;;;;8.25;2.92;;;;;;;0.46;63.72;101408.72;5026763;28;20180;-56
2023/04/04 04:33:33;;;;;;;12.48;3.22;;;;;;;0.43;63.86;101411.97;5044754;28;20488;-59
2023/04/04 04:36:00;;;;;;;10.48;2.40;;;;;;;0.38;63.75;101405.72;5038737;28;20088;-52
2023/04/04 04:38:28;;;;;;;5.75;3.33;;;;;;;0.37;64.88;101406.50;5043710;28;20046;-57
2023/04/04 04:40:55;;;;;;;7.15;2.22;;;;;;;0.35;63.98;101410.63;5047020;28;20126;-53
2023/04/04 04:43:23;;;;;;;7.45;2.78;;;;;;;0.33;64.87;101407.09;5040833;28;20045;-58
2023/04/04 04:45:49;;;;;;;5.28;2.55;;;;;;;0.31;64.25;101403.59;5058958;28;20459;-60
2023/04/04 04:48:16;;;;;;;5.50;2.90;;;;;;;0.28;64.80;101404.28;5044926;28;20087;-54
2023/04/04 04:50:44;;;;;;;7.68;2.70;;;;;;;0.25;64.39;101410.09;5030195;28;20458;-56
2023/04/04 04:53:12;;;;;;;5.47;2.40;;;;;;;0.23;64.93;101401.44;5044271;28;20091;-53
2023/04/04 04:55:38;;;;;;;7.03;2.72;;;;;;;0.23;64.38;101405.66;5031006;28;20081;-55
2023/04/04 04:58:05;;;;;;;6.72;2.78;;;;;;;0.22;64.33;101409.91;5033738;28;20145;-57
2023/04/04 05:00:32;;;;;;;5.82;2.25;;;;;;;0.19;64.45;101399.50;5040901;28;20049;-55
2023/04/04 05:02:59;;;;;;;6.97;2.92;;;;;;;0.18;65.53;101402.84;5044476;28;20143;-58
2023/04/04 05:05:27;;;;;;;5.45;2.60;;;;;;;0.16;65.35;101396.75;5037456;28;20523;-55
2023/04/04 05:07:53;;;;;;;5.00;2.00;;;;;;;0.12;65.21;101403.34;5042173;28;20037;-53
2023/04/04 05:10:20;;;;;;;12.02;2.75;;;;;;;0.11;65.27;101400.72;5042152;28;20053;-49
2023/04/04 05:12:47;;;;;;;8.10;2.00;;;;;;;0.11;65.59;101405.81;5043861;28;20295;-54
2023/04/04 05:15:13;;;;;;;4.70;2.33;;;;;;;0.10;65.75;101398.94;5035276;28;20049;-51
2023/04/04 05:17:40;;;;;;;4.15;1.88;;;;;;;0.10;65.31;101398.94;5041251;28;20148;-57
2023/04/04 05:20:07;;;;;;;8.20;2.75;;;;;;;0.11;65.33;101395.59;5039354;28;20049;-54
2023/04/04 05:22:34;;;;;;;5.72;2.60;;;;;;;0.11;65.41;101390.50;5043048;28;20048;-60
2023/04/04 05:25:01;;;;;;;5.78;2.17;;;;;;;0.11;66.24;101390.50;5044476;28;20499;-54
2023/04/04 05:27:27;;;;;;;8.98;2.55;;;;;;;0.07;66.98;101388.56;5038423;28;20041;-55
2023/04/04 05:29:54;;;;;;;9.48;2.88;;;;;;;0.04;66.98;101388.38;5043295;28;20052;-51
2023/04/04 05:32:21;;;;;;;7.47;3.00;;;;;;;0.01;66.65;101383.97;5040500;28;20080;-53
2023/04/04 05:34:48;;;;;;;13.60;3.58;;;;;;;-0.05;67.49;101389.56;5042208;28;20056;-48
2023/04/04 05:37:16;;;;;;;7.93;3.28;;;;;;;-0.07;68.38;101396.22;5040280;28;20071;-49
2023/04/04 05:39:42;;;;;;;6.78;2.90;;;;;;;-0.04;67.06;101390.41;5037499;28;20725;-60
2023/04/04 05:42:09;;;;;;;8.52;3.42;;;;;;;-0.02;67.36;101389.75;5028132;28;20181;-58
2023/04/04 05:44:36;;;;;;;7.57;3.47;;;;;;;0.03;67.81;101392.56;5036413;28;20044;-52
2023/04/04 05:47:02;;;;;;;10.55;3.20;;;;;;;0.08;67.45;101390.31;5039271;28;20148;-56
2023/04/04 05:49:29;;;;;;;7.47;2.60;;;;;;;0.09;66.69;101392.06;5040906;28;20075;-53
2023/04/04 05:51:55;;;;;;;6.45;2.38;;;;;;;0.11;66.70;101393.91;5042706;28;20041;-57
2023/04/04 05:54:22;;;;;;;4.72;2.72;;;;;;;0.10;66.21;101392.16;5039490;28;20049;-54
2023/04/04 05:56:49;;;;;;;6.28;2.17;;;;;;;0.10;66.90;101398.94;5042828;28;20091;-58
2023/04/04 05:59:16;;;;;;;10.18;2.17;;;;;;;0.09;66.15;101397.16;5044302;28;20103;-55
2023/04/04 06:01:43;;;;;;;6.22;2.70;;;;;;;0.10;66.22;101401.50;5042059;28;20049;-52
2023/04/04 06:04:10;;;;;;;6.60;2.25;;;;;;;0.11;66.30;101400.72;5041333;28;20132;-59
2023/04/04 06:06:37;;;;;;;4.38;1.92;;;;;;;0.08;66.53;101400.50;5045220;28;20611;-52
2023/04/04 06:09:04;;;;;;;4.45;2.05;;;;;;;0.08;65.88;101406.50;5043306;28;20408;-59
2023/04/04 06:11:34;;;;;;;10.25;2.42;;;;;;;0.10;66.43;101398.94;5039495;28;20269;-61
2023/04/04 06:14:00;;;;;;;7.40;2.78;;;;;;;0.12;66.12;101398.25;5041192;28;20033;-58
2023/04/04 06:16:27;;;;;;;5.65;2.83;;;;;;;0.16;66.74;101389.13;5034487;28;20562;-59
2023/04/04 06:18:54;;;;;;;5.43;3.00;;;;;;;0.19;67.18;101390.97;5039819;28;20057;-55
2023/04/04 06:21:20;;;;;;;5.35;2.60;;;;;;;0.20;67.01;101401.25;5036176;28;20068;-60
2023/04/04 06:23:47;;;;;;;6.15;2.67;;;;;;;0.24;66.77;101398.09;5043999;28;20037;-49
2023/04/04 06:26:14;;;;;;;6.97;3.25;;;;;;;0.28;67.18;101403.41;5040144;28;20131;-59
2023/04/04 06:28:56;;;;;;;4.82;2.47;;;;;;;0.32;66.94;101413.00;5035984;28;20077;-51
2023/04/04 06:31:23;;;;;;;4.22;1.88;;;;;;;0.36;66.90;101409.84;5039078;28;20045;-53
2023/04/04 06:33:49;;;;;;;8.68;2.72;;;;;;;0.41;66.75;101422.88;5038367;28;20532;-61
2023/04/04 06:36:16;;;;;;;6.00;2.63;;;;;;;0.40;66.86;101419.44;5037026;28;20045;-56
2023/04/04 06:38:42;;;;;;;4.53;2.47;;;;;;;0.41;66.86;101418.69;5038997;28;20170;-56
2023/04/04 06:41:09;;;;;;;6.32;3.17;;;;;;;0.43;66.59;101419.63;5043604;28;20048;-56
2023/04/04 06:43:36;;;;;;;10.75;3.00;;;;;;;0.46;66.53;101422.38;5043375;28;20033;-56
2023/04/04 06:46:03;;;;;;;5.45;2.30;;;;;;;0.51;67.17;101431.16;5044557;28;20103;-56
2023/04/04 06:48:30;;;;;;;11.52;3.28;;;;;;;0.59;66.46;101430.75;5042563;28;20136;-55
2023/04/04 06:50:56;;;;;;;6.40;2.25;;;;;;;0.64;66.87;101431.91;5042677;28;20118;-55
2023/04/04 06:53:24;;;;;;;8.13;2.63;;;;;;;0.70;66.45;101434.84;5041489;28;20080;-61
2023/04/04 06:55:52;;;;;;;4.68;1.95;;;;;;;0.74;66.86;101431.69;5037475;28;20083;-52
2023/04/04 06:58:18;;;;;;;9.30;2.75;;;;;;;0.81;66.78;101429.50;5042976;28;20551;-51
2023/04/04 07:00:45;;;;;;;4.68;2.85;;;;;;;0.87;67.43;101427.28;5036155;28;20102;-56
2023/04/04 07:03:13;;;;;;;7.45;2.88;;;;;;;0.94;66.46;101416.66;5031463;28;20116;-57
2023/04/04 07:05:40;;;;;;;5.25;2.58;;;;;;;1.00;67.19;101421.25;5034021;28;20045;-58
2023/04/04 07:08:07;;;;;;;6.45;3.03;;;;;;;1.49;67.51;101419.78;5041229;28;20057;-51
2023/04/04 07:10:34;;;;;;;13.50;4.00;;;;;;;2.52;67.47;101426.19;5036145;28;20627;-56
2023/04/04 07:13:01;;;;;;;16.58;4.45;;;;;;;3.56;66.35;101422.81;5035222;28;20060;-59
2023/04/04 07:15:27;;;;;;;12.73;4.32;;;;;;;4.52;65.58;101425.41;5033489;28;20104;-55
2023/04/04 07:17:54;;;;;;;18.48;5.22;;;;;;;5.62;65.54;101434.28;5037285;28;20081;-55
2023/04/04 07:20:21;;;;;;;10.40;4.85;;;;;;;6.73;64.11;101429.81;5038940;28;20049;-57
2023/04/04 07:22:48;;;;;;;8.73;3.90;;;;;;;7.75;63.89;101428.88;5037096;28;20049;-54
2023/04/04 07:25:14;;;;;;;9.40;4.05;;;;;;;8.69;62.83;101438.53;5049724;28;20079;-58
2023/04/04 07:27:41;;;;;;;11.07;3.53;;;;;;;9.56;61.46;101438.97;5035468;28;20068;-53
2023/04/04 07:30:09;;;;;;;8.38;4.10;;;;;;;10.31;59.80;101440.63;5034637;28;20140;-58
2023/04/04 07:32:37;;;;;;;9.10;3.90;;;;;;;10.93;58.35;101436.66;5042240;28;20103;-57
2023/04/04 07:35:05;;;;;;;8.90;3.80;;;;;;;11.57;56.84;101441.19;5038825;28;20049;-52
2023/04/04 07:37:32;;;;;;;9.95;3.25;;;;;;;12.08;56.20;101433.28;5026218;28;20060;-48
2023/04/04 07:39:59;;;;;;;10.07;3.97;;;;;;;12.56;55.12;101430.41;5028418;28;20073;-59
2023/04/04 07:42:26;;;;;;;10.27;4.05;;;;;;;13.07;54.08;101437.00;5040060;28;20045;-53
2023/04/04 07:44:53;;;;;;;8.25;3.00;;;;;;;13.46;52.68;101432.09;5042736;28;20132;-51
2023/04/04 07:47:20;;;;;;;10.07;2.92;;;;;;;13.86;52.12;101431.53;5047107;28;20412;-56
2023/04/04 07:49:46;;;;;;;10.10;3.80;;;;;;;14.13;51.21;101429.94;5040132;28;20077;-57
2023/04/04 07:52:13;;;;;;;10.45;3.60;;;;;;;14.48;50.64;101428.31;5040939;28;20809;-55
2023/04/04 07:54:39;;;;;;;11.55;4.03;;;;;;;14.82;49.55;101415.38;5035927;28;20081;-55
2023/04/04 07:57:08;;;;;;;10.90;4.57;;;;;;;15.02;48.80;101412.81;5042861;28;20083;-58
2023/04/04 07:59:36;;;;;;;10.73;4.55;;;;;;;15.09;47.79;101408.44;5048675;28;20110;-51
2023/04/04 08:02:03;;;;;;;7.65;3.28;;;;;;;14.93;46.11;101399.75;5040789;28;20500;-56
2023/04/04 08:04:29;;;;;;;6.78;3.67;;;;;;;14.85;46.19;101407.56;5045160;28;20037;-62
2023/04/04 08:06:56;;;;;;;8.20;4.22;;;;;;;14.98;46.88;101394.53;5046196;28;20119;-59
2023/04/04 08:09:23;;;;;;;11.18;4.07;;;;;;;14.90;45.61;101400.63;5045620;28;20099;-63
2023/04/04 08:11:50;;;;;;;9.13;4.00;;;;;;;14.80;45.51;101393.66;5038815;28;20045;-53
2023/04/04 08:14:17;;;;;;;7.03;3.90;;;;;;;14.85;45.89;101391.91;5032672;28;20076;-56
2023/04/04 08:16:43;;;;;;;6.28;3.17;;;;;;;14.94;45.52;101387.56;5038299;28;20060;-62
2023/04/04 08:19:10;;;;;;;11.70;3.80;;;;;;;15.11;46.06;101383.25;5024673;28;20041;-53
2023/04/04 08:21:36;;;;;;;7.65;2.67;;;;;;;15.41;45.66;101376.22;5021604;28;20577;-51
2023/04/04 08:24:03;;;;;;;9.40;3.55;;;;;;;15.83;45.83;101383.09;5040178;28;20045;-58
2023/04/04 08:26:30;;;;;;;6.82;3.50;;;;;;;16.12;44.93;101374.34;5037102;28;20136;-57
2023/04/04 08:28:57;;;;;;;6.88;4.03;;;;;;;16.35;44.92;101370.69;5031546;28;20095;-57
2023/04/04 08:31:24;;;;;;;8.57;2.85;;;;;;;16.39;43.67;101367.22;5037907;28;20041;-54
2023/04/04 08:33:51;;;;;;;10.68;3.28;;;;;;;16.43;43.99;101371.56;5026858;28;20038;-59
2023/04/04 08:36:18;;;;;;;7.43;2.53;;;;;;;16.66;44.23;101369.66;5026631;28;20053;-60
2023/04/04 08:38:45;;;;;;;8.38;2.55;;;;;;;16.88;42.99;101375.59;5036014;28;20069;-56
2023/04/04 08:41:12;;;;;;;6.15;2.75;;;;;;;16.95;41.99;101374.66;5041539;28;20064;-61
2023/04/04 08:43:42;;;;;;;4.75;2.65;;;;;;;16.79;42.67;101373.06;5037147;28;20059;-64
2023/04/04 08:46:11;;;;;;;8.63;3.75;;;;;;;16.79;42.94;101371.28;5038300;28;20163;-57
2023/04/04 08:48:41;;;;;;;6.43;2.28;;;;;;;16.84;43.23;101366.03;5033380;28;20053;-63
2023/04/04 08:51:12;;;;;;;7.03;2.72;;;;;;;16.72;42.21;101363.53;5018675;28;20111;-59
2023/04/04 08:53:39;;;;;;;4.38;2.90;;;;;;;16.76;41.82;101365.22;5026344;28;20080;-59
2023/04/04 08:56:06;;;;;;;6.22;2.83;;;;;;;16.90;41.98;101373.84;5035195;28;20073;-53
2023/04/04 08:58:32;;;;;;;7.68;3.28;;;;;;;16.98;42.22;101378.16;5022799;28;20694;-62
2023/04/04 09:00:59;;;;;;;5.07;2.75;;;;;;;16.98;40.68;101375.53;5037699;28;20133;-59
2023/04/04 09:03:29;;;;;;;8.30;3.45;;;;;;;17.12;41.32;101375.44;5037691;28;20099;-57
2023/04/04 09:05:56;;;;;;;8.25;3.65;;;;;;;17.32;41.21;101380.47;5036800;28;21898;-59
2023/04/04 09:08:23;;;;;;;5.30;2.03;;;;;;;17.44;40.50;101377.75;5019663;28;20080;-62
2023/04/04 09:10:51;;;;;;;6.95;2.28;;;;;;;17.38;40.18;101377.81;5041315;28;20045;-63
2023/04/04 09:13:18;;;;;;;6.22;2.80;;;;;;;17.27;39.23;101377.06;5040790;28;20053;-58
2023/04/04 09:15:48;;;;;;;6.57;2.47;;;;;;;17.17;39.64;101371.91;5042861;28;20045;-53
2023/04/04 09:18:16;;;;;;;6.47;2.92;;;;;;;17.20;40.00;101376.25;5003857;28;20087;-59
2023/04/04 09:20:45;;;;;;;10.02;2.92;;;;;;;16.94;39.72;101370.31;5041519;28;20053;-61
2023/04/04 09:23:14;;;;;;;7.20;2.80;;;;;;;17.11;40.62;101371.94;5043004;28;20046;-62
2023/04/04 09:25:52;;;;;;;7.50;2.75;;;;;;;17.31;40.38;101378.75;5027713;28;20079;-58
2023/04/04 09:28:30;;;;;;;6.68;2.70;;;;;;;17.45;40.61;101374.25;5038649;28;20099;-56
2023/04/04 09:31:00;;;;;;;5.97;2.70;;;;;;;17.68;39.92;101375.75;5037668;28;20167;-61
2023/04/04 09:33:26;;;;;;;7.57;3.03;;;;;;;17.75;39.82;101379.19;5019893;28;20088;-56
2023/04/04 09:35:57;;;;;;;7.28;3.72;;;;;;;17.85;39.56;101380.81;5036170;28;20049;-59
2023/04/04 09:38:25;;;;;;;8.50;3.55;;;;;;;18.10;40.02;101377.03;5023862;28;20527;-60
2023/04/04 09:40:54;;;;;;;6.75;2.28;;;;;;;18.31;39.93;101377.66;5044280;28;20049;-58
2023/04/04 09:43:23;;;;;;;6.88;3.40;;;;;;;18.36;39.58;101386.31;5022509;28;20961;-56
2023/04/04 09:45:50;;;;;;;9.38;3.45;;;;;;;18.53;39.43;101377.31;5039949;28;20053;-61
2023/04/04 09:48:27;;;;;;;8.00;2.92;;;;;;;18.47;38.22;101373.03;5038083;28;20055;-58
2023/04/04 09:50:57;;;;;;;6.35;3.00;;;;;;;18.50;38.43;101368.63;5021026;28;20147;-58
2023/04/04 09:53:24;;;;;;;;;;;;;;;18.42;36.52;101380.09;5040630;28;20072;-56
2023/04/04 09:55:53;;;;;;;7.50;3.05;;;;;;;18.06;37.81;101378.81;5038504;28;20296;-61
2023/04/04 09:58:26;;;;;;;6.53;3.40;;;;;;;17.89;37.70;101375.50;5041840;28;20083;-59
2023/04/04 10:00:58;;;;;;;7.55;3.47;;;;;;;17.84;36.73;101379.06;5019895;28;20064;-62
2023/04/04 10:03:26;;;;;;;9.25;3.50;;;;;;;17.71;37.22;101373.13;5031567;28;20064;-57
2023/04/04 10:08:33;;;;;;;7.10;2.40;;;;;;;17.49;38.47;101371.59;5057629;27;20399;-54
2023/04/04 10:11:01;;;;;;;5.47;3.03;;;;;;;17.52;38.58;101374.16;4999956;28;20081;-54
2023/04/04 10:13:39;;;;;;;6.38;2.67;;;;;;;17.59;38.72;101368.88;5015556;28;20080;-54
2023/04/04 10:16:07;;;;;;;6.90;3.50;;;;;;;17.65;39.65;101367.94;5019401;28;20421;-56
2023/04/04 10:18:35;;;;;;;8.32;3.22;;;;;;;17.92;40.42;101371.13;5016107;28;20083;-56
2023/04/04 10:21:04;;;;;;;8.73;3.33;;;;;;;18.02;38.70;101364.00;5020091;28;20057;-58
2023/04/04 10:23:35;;;;;;;7.25;2.90;;;;;;;17.78;37.47;101359.91;5017733;28;20077;-51
2023/04/04 10:26:02;;;;;;;5.32;3.08;;;;;;;17.49;37.69;101361.13;5010322;28;20070;-54
2023/04/04 10:28:30;;;;;;;9.18;3.38;;;;;;;17.25;38.15;101352.66;5017022;28;20052;-58
2023/04/04 10:36:19;;;;;;;7.90;3.65;;;;;;;17.01;38.38;101354.56;5102650;27;20398;-55
2023/04/04 10:38:57;;;;;;;7.47;4.55;;;;;;;17.04;38.98;101349.28;5070305;27;20105;-59
2023/04/04 10:41:28;;;;;;;5.97;3.15;;;;;;;17.18;40.49;101357.94;5069727;28;20509;-55
2023/04/04 10:43:59;;;;;;;5.53;4.30;;;;;;;17.44;39.72;101358.56;5069674;28;20113;-56
2023/04/04 10:46:30;;;;;;;7.53;4.10;;;;;;;17.36;38.66;101361.25;5088356;28;20180;-61
2023/04/04 10:49:00;;;;;;;6.40;4.45;;;;;;;17.12;39.22;101364.97;5094945;28;20050;-58
2023/04/04 10:51:29;;;;;;;6.75;5.07;;;;;;;17.07;39.76;101354.53;5093557;28;20048;-57
2023/04/04 10:53:58;;;;;;;7.43;4.50;;;;;;;16.78;38.81;101347.75;5097483;28;20044;-54
2023/04/04 10:56:25;;;;;;;8.40;4.78;;;;;;;16.66;39.22;101349.63;5094589;28;20058;-56
2023/04/04 10:59:10;;;;;;;9.23;5.22;;;;;;;16.63;39.41;101344.41;5081054;28;20072;-59
2023/04/04 11:01:58;;;;;;;10.25;5.10;;;;;;;16.56;40.21;101345.31;5066231;28;20052;-56
2023/04/04 11:04:31;;;;;;;6.80;4.32;;;;;;;16.48;40.20;101341.91;5073057;28;20068;-52
2023/04/04 11:12:35;;;;;;;7.82;3.35;;;;;;;16.35;40.91;101333.25;5062954;27;20405;-58
2023/04/04 11:20:23;;;;;;;8.85;4.13;;;;;;;16.51;41.27;101328.81;5020905;27;20424;-60
2023/04/04 11:23:02;;;;;;;6.45;4.45;;;;;;;16.34;39.88;101321.91;4996020;28;20514;-55
2023/04/04 11:30:47;;;;;;;7.22;2.67;;;;;;;16.11;40.64;101325.53;5025486;28;20400;-62
2023/04/04 11:33:26;;;;;;;7.38;2.80;;;;;;;16.06;41.07;101319.47;4992184;28;20061;-56
2023/04/04 11:35:58;;;;;;;5.80;2.78;;;;;;;16.18;41.85;101329.84;5004871;28;20492;-54
2023/04/04 11:38:28;;;;;;;6.78;2.75;;;;;;;16.16;40.88;101328.13;4966724;28;20047;-55
2023/04/04 11:40:56;;;;;;;11.23;3.50;;;;;;;16.28;41.03;101314.13;4972267;28;20141;-52
2023/04/04 11:43:24;;;;;;;7.18;3.60;;;;;;;16.47;41.30;101314.88;4984583;28;20518;-57
2023/04/04 11:45:52;;;;;;;6.60;3.63;;;;;;;16.44;41.08;101314.88;4984175;28;20651;-55
2023/04/04 11:48:19;;;;;;;5.50;2.58;;;;;;;16.52;40.96;101320.91;4978414;28;20054;-59
2023/04/04 11:50:48;;;;;;;7.43;3.05;;;;;;;16.50;41.00;101320.06;4994662;28;20078;-60
2023/04/04 11:53:16;;;;;;;5.93;3.30;;;;;;;16.42;41.53;101320.13;4992903;28;20057;-57
2023/04/04 11:55:47;;;;;;;9.48;3.50;;;;;;;16.40;39.91;101306.19;4998195;28;20050;-60